Time;durP1;ratioP1;P1;durP2;ratioP2;P2;SDS_P1;SDS_P2;PMS_P1;PMS_P2;Temp;Humidity;BMP_temperature;BMP_pressure;BME280_temperature;BME280_humidity;BME280_pressure;Samples;Min_cycle;Max_cycle;Signal;HPM_P1;HPM_P2
2022/02/12 00:02:19;;;;;;;13.18;3.00;;;1.30;99.90;;;;;;5003076;28;20026;-66
2022/02/12 00:04:45;;;;;;;10.80;3.65;;;1.30;99.90;;;;;;5002633;28;20038;-67
2022/02/12 00:07:11;;;;;;;14.15;4.22;;;1.30;99.90;;;;;;5003205;28;20251;-66
2022/02/12 00:09:36;;;;;;;12.23;3.42;;;1.30;99.90;;;;;;5001918;28;20026;-66
2022/02/12 00:12:03;;;;;;;12.25;4.07;;;1.30;99.90;;;;;;5003558;28;20040;-66
2022/02/12 00:14:29;;;;;;;9.50;2.88;;;1.30;99.90;;;;;;5002379;28;20030;-66
2022/02/12 00:16:55;;;;;;;15.15;3.55;;;1.30;99.90;;;;;;5002360;28;20045;-67
2022/02/12 00:19:20;;;;;;;16.92;4.68;;;1.30;99.90;;;;;;5002872;28;20034;-67
2022/02/12 00:21:46;;;;;;;19.63;4.57;;;1.30;99.90;;;;;;5000467;28;20436;-66
2022/02/12 00:24:11;;;;;;;12.13;3.80;;;1.20;99.90;;;;;;5003841;28;20034;-66
2022/02/12 00:26:37;;;;;;;13.75;4.05;;;1.30;99.90;;;;;;5000886;28;20141;-68
2022/02/12 00:29:03;;;;;;;19.75;4.78;;;1.30;99.90;;;;;;5004183;28;20042;-67
2022/02/12 00:31:29;;;;;;;14.35;3.50;;;1.30;99.90;;;;;;5001137;28;20042;-66
2022/02/12 00:33:55;;;;;;;12.85;3.60;;;1.30;99.90;;;;;;5003056;28;20049;-66
2022/02/12 00:36:20;;;;;;;14.80;3.65;;;1.30;99.90;;;;;;5002159;28;20034;-66
2022/02/12 00:38:46;;;;;;;19.58;3.80;;;1.20;99.90;;;;;;5002070;28;20416;-66
2022/02/12 00:41:12;;;;;;;14.18;3.70;;;1.20;99.90;;;;;;5003327;28;20052;-67
2022/02/12 00:43:38;;;;;;;21.73;4.28;;;1.20;99.90;;;;;;5002897;28;20044;-66
2022/02/12 00:46:04;;;;;;;13.40;3.85;;;1.20;99.90;;;;;;4999097;28;20125;-66
2022/02/12 00:48:32;;;;;;;11.77;3.33;;;1.20;99.90;;;;;;5004099;28;20049;-66
2022/02/12 00:50:59;;;;;;;14.77;3.70;;;1.20;99.90;;;;;;5001111;28;20034;-66
2022/02/12 00:53:29;;;;;;;10.95;3.90;;;1.20;99.90;;;;;;5002944;28;20034;-66
2022/02/12 00:55:55;;;;;;;17.70;4.95;;;1.20;99.90;;;;;;5000631;28;20048;-67
2022/02/12 00:58:21;;;;;;;14.13;3.40;;;1.20;99.90;;;;;;5001790;28;20154;-67
2022/02/12 01:00:46;;;;;;;13.70;3.30;;;1.20;99.90;;;;;;5002424;28;20033;-66
2022/02/12 01:03:12;;;;;;;15.13;3.13;;;1.20;99.90;;;;;;5000303;28;20038;-66
2022/02/12 01:05:38;;;;;;;16.33;3.58;;;1.20;99.90;;;;;;5003864;28;20033;-66
2022/02/12 01:08:04;;;;;;;13.48;2.85;;;1.20;99.90;;;;;;5000030;28;20030;-66
2022/02/12 01:10:34;;;;;;;14.35;3.50;;;1.20;99.90;;;;;;5001898;28;20426;-66
2022/02/12 01:13:01;;;;;;;10.80;3.53;;;1.20;99.90;;;;;;4999851;28;20080;-66
2022/02/12 01:15:27;;;;;;;8.63;2.72;;;1.20;99.90;;;;;;5003181;28;20038;-67
2022/02/12 01:17:53;;;;;;;14.38;2.95;;;1.20;99.90;;;;;;5001051;28;20045;-66
2022/02/12 01:20:19;;;;;;;13.40;3.13;;;1.20;99.90;;;;;;5001656;28;20038;-66
2022/02/12 01:22:47;;;;;;;13.77;4.15;;;1.20;99.90;;;;;;5002358;28;20026;-66
2022/02/12 01:25:13;;;;;;;16.58;3.53;;;1.30;99.90;;;;;;5000922;28;20061;-66
2022/02/12 01:27:39;;;;;;;9.13;3.33;;;1.20;99.90;;;;;;5002010;28;20477;-67
2022/02/12 01:30:05;;;;;;;14.23;2.90;;;1.30;99.90;;;;;;5001034;28;20038;-67
2022/02/12 01:32:31;;;;;;;11.98;3.47;;;1.30;99.90;;;;;;5000593;28;20038;-66
2022/02/12 01:34:57;;;;;;;11.77;3.92;;;1.30;99.90;;;;;;5002312;28;20041;-66
2022/02/12 01:37:23;;;;;;;9.80;2.70;;;1.30;99.90;;;;;;5000786;28;20402;-66
2022/02/12 01:39:50;;;;;;;14.63;3.50;;;1.30;99.90;;;;;;5001991;28;20166;-66
2022/02/12 01:42:16;;;;;;;10.85;3.00;;;1.20;99.90;;;;;;5002585;28;20037;-67
2022/02/12 01:44:42;;;;;;;16.73;3.38;;;1.30;99.90;;;;;;5000443;28;20069;-66
2022/02/12 01:47:09;;;;;;;14.23;2.90;;;1.30;99.90;;;;;;5001163;28;20096;-67
2022/02/12 01:49:35;;;;;;;13.10;3.47;;;1.20;99.90;;;;;;5000125;28;20465;-66
2022/02/12 01:52:05;;;;;;;24.45;4.28;;;1.30;99.90;;;;;;4997076;28;20041;-66
2022/02/12 01:54:31;;;;;;;16.20;3.03;;;1.30;99.90;;;;;;5001419;28;20034;-67
2022/02/12 01:56:59;;;;;;;8.20;2.33;;;1.30;99.90;;;;;;4998276;28;20089;-66
2022/02/12 01:59:25;;;;;;;7.18;2.67;;;1.30;99.90;;;;;;5001584;28;20460;-66
2022/02/12 02:01:51;;;;;;;14.10;3.30;;;1.30;99.90;;;;;;4999821;28;20038;-66
2022/02/12 02:04:17;;;;;;;13.02;3.08;;;1.30;99.90;;;;;;5000882;28;20047;-65
2022/02/12 02:06:44;;;;;;;14.73;3.28;;;1.30;99.90;;;;;;5001523;28;20045;-67
2022/02/12 02:09:09;;;;;;;13.68;2.97;;;1.40;99.90;;;;;;4999270;28;20379;-66
2022/02/12 02:11:36;;;;;;;16.25;3.50;;;1.30;99.90;;;;;;5000903;28;20104;-66
2022/02/12 02:14:03;;;;;;;16.60;3.20;;;1.30;99.90;;;;;;4999131;28;20406;-66
2022/02/12 02:16:28;;;;;;;13.43;2.60;;;1.30;99.90;;;;;;5002965;28;20448;-65
2022/02/12 02:18:54;;;;;;;10.68;3.35;;;1.40;99.90;;;;;;4999551;28;20097;-66
2022/02/12 02:21:23;;;;;;;12.30;3.53;;;1.30;99.90;;;;;;5001083;28;20060;-66
2022/02/12 02:23:50;;;;;;;11.68;4.20;;;1.30;99.90;;;;;;4999808;28;20070;-66
2022/02/12 02:26:15;;;;;;;12.45;3.17;;;1.30;99.90;;;;;;5000692;28;20117;-66
2022/02/12 02:28:41;;;;;;;20.67;3.65;;;1.30;99.90;;;;;;4999638;28;20129;-66
2022/02/12 02:31:07;;;;;;;11.93;2.92;;;1.30;99.90;;;;;;4999258;28;20117;-66
2022/02/12 02:33:33;;;;;;;11.05;3.20;;;1.30;99.90;;;;;;5002550;28;20046;-66
2022/02/12 02:35:58;;;;;;;14.85;4.00;;;1.30;99.90;;;;;;4999951;28;20546;-65
2022/02/12 02:38:24;;;;;;;11.80;2.60;;;1.30;99.90;;;;;;5002395;28;20038;-65
2022/02/12 02:40:52;;;;;;;15.40;3.25;;;1.20;99.90;;;;;;4998481;28;20261;-66
2022/02/12 02:43:18;;;;;;;9.63;2.60;;;1.20;99.90;;;;;;5004839;28;20120;-66
2022/02/12 02:45:43;;;;;;;14.70;2.85;;;1.20;99.90;;;;;;5001295;28;20117;-67
2022/02/12 02:48:09;;;;;;;16.40;3.38;;;1.20;99.90;;;;;;4999571;28;20470;-66
2022/02/12 02:56:10;;;;;;;10.85;2.83;;;1.30;99.90;;;;;;4997519;28;20058;-65
2022/02/12 02:58:39;;;;;;;8.65;2.20;;;1.30;99.90;;;;;;5000997;28;20042;-65
2022/02/12 03:01:08;;;;;;;12.93;3.20;;;1.30;99.90;;;;;;4998448;28;20081;-66
2022/02/12 03:03:35;;;;;;;14.57;3.13;;;1.30;99.90;;;;;;5002212;28;20049;-66
2022/02/12 03:06:00;;;;;;;17.02;2.92;;;1.40;99.90;;;;;;4999145;28;20034;-66
2022/02/12 03:08:27;;;;;;;11.35;3.33;;;1.40;99.90;;;;;;5002366;28;20044;-66
2022/02/12 03:10:52;;;;;;;9.18;2.58;;;1.40;99.90;;;;;;4997696;28;20034;-66
2022/02/12 03:13:18;;;;;;;12.25;2.88;;;1.30;99.90;;;;;;5000388;28;20041;-66
2022/02/12 03:15:44;;;;;;;8.15;2.50;;;1.30;99.90;;;;;;5000566;28;20508;-67
2022/02/12 03:18:09;;;;;;;10.80;2.47;;;1.30;99.90;;;;;;5001441;28;20045;-66
2022/02/12 03:20:35;;;;;;;11.85;2.70;;;1.30;99.90;;;;;;5005222;28;20109;-66
2022/02/12 03:23:01;;;;;;;17.20;3.10;;;1.30;99.90;;;;;;5003170;28;20176;-70
2022/02/12 03:25:27;;;;;;;9.48;2.40;;;1.30;99.90;;;;;;5006816;28;20073;-66
2022/02/12 03:28:00;;;;;;;12.90;3.03;;;1.30;99.90;;;;;;5002778;28;20038;-67
2022/02/12 03:30:35;;;;;;;13.48;3.15;;;1.30;99.90;;;;;;4999695;28;20030;-66
2022/02/12 03:33:01;;;;;;;8.95;2.28;;;1.20;99.90;;;;;;5000022;28;20077;-69
2022/02/12 03:35:27;;;;;;;13.52;3.00;;;1.20;99.90;;;;;;5006608;28;20401;-66
2022/02/12 03:38:28;;;;;;;9.93;3.58;;;1.20;99.90;;;;;;5003104;28;20390;-66
2022/02/12 03:41:00;;;;;;;11.30;2.30;;;1.20;99.90;;;;;;4960058;28;20030;-66
2022/02/12 03:43:28;;;;;;;12.18;3.17;;;1.20;99.90;;;;;;4999851;28;20035;-66
2022/02/12 03:45:54;;;;;;;13.95;2.65;;;1.20;99.90;;;;;;5005205;28;20028;-67
2022/02/12 03:48:20;;;;;;;11.20;2.88;;;1.20;99.90;;;;;;5003205;28;20046;-65
2022/02/12 03:50:46;;;;;;;6.95;2.92;;;1.20;99.90;;;;;;5004403;28;20375;-67
2022/02/12 03:53:12;;;;;;;9.05;2.53;;;1.20;99.90;;;;;;5003875;28;20049;-66
2022/02/12 03:55:39;;;;;;;16.75;2.53;;;1.20;99.90;;;;;;5004491;28;20489;-66
2022/02/12 03:58:08;;;;;;;12.57;2.92;;;1.30;99.90;;;;;;5003160;28;20494;-66
2022/02/12 04:00:34;;;;;;;20.30;3.17;;;1.30;99.90;;;;;;5003081;28;20065;-66
2022/02/12 04:03:00;;;;;;;29.70;4.18;;;1.20;99.90;;;;;;5004578;28;20088;-66
2022/02/12 04:05:26;;;;;;;8.82;1.98;;;1.20;99.90;;;;;;5003224;28;20078;-66
2022/02/12 04:07:52;;;;;;;12.55;2.10;;;1.20;99.90;;;;;;5002849;28;20490;-66
2022/02/12 04:10:17;;;;;;;9.93;2.53;;;1.20;99.90;;;;;;5005744;28;20030;-67
2022/02/12 04:12:45;;;;;;;19.17;4.57;;;1.20;99.90;;;;;;5005028;28;20401;-66
2022/02/12 04:15:12;;;;;;;7.90;2.85;;;1.20;99.90;;;;;;5003521;28;20053;-66
2022/02/12 04:17:38;;;;;;;8.18;2.20;;;1.20;99.90;;;;;;5003637;28;20080;-66
2022/02/12 04:20:09;;;;;;;10.57;2.60;;;1.20;99.90;;;;;;5004048;28;20126;-66
2022/02/12 04:22:36;;;;;;;9.57;2.25;;;1.20;99.90;;;;;;5003575;28;20030;-66
2022/02/12 04:25:04;;;;;;;14.10;3.38;;;1.10;99.90;;;;;;5003822;28;20037;-67
2022/02/12 04:27:30;;;;;;;6.10;2.05;;;1.10;99.90;;;;;;5001078;28;20034;-67
2022/02/12 04:29:56;;;;;;;9.55;1.85;;;1.10;99.90;;;;;;5004927;28;20049;-66
2022/02/12 04:32:21;;;;;;;12.68;2.30;;;1.10;99.90;;;;;;5001149;28;20045;-66
2022/02/12 04:34:52;;;;;;;11.85;3.50;;;1.00;99.90;;;;;;5005403;28;20026;-66
2022/02/12 04:37:19;;;;;;;5.97;2.38;;;1.10;99.90;;;;;;5001515;28;20034;-66
2022/02/12 04:39:45;;;;;;;23.13;3.40;;;1.10;99.90;;;;;;5004273;28;20041;-66
2022/02/12 04:42:13;;;;;;;7.90;2.25;;;1.10;99.90;;;;;;5000925;28;20279;-66
2022/02/12 04:44:45;;;;;;;11.32;2.70;;;1.10;99.90;;;;;;5003505;28;20034;-67
2022/02/12 04:47:11;;;;;;;8.65;2.25;;;1.10;99.90;;;;;;5002687;28;20512;-66
2022/02/12 04:49:38;;;;;;;13.77;2.85;;;1.10;99.90;;;;;;5001717;28;20058;-66
2022/02/12 04:52:05;;;;;;;13.43;2.13;;;1.10;99.90;;;;;;5002845;28;20038;-65
2022/02/12 04:54:30;;;;;;;11.55;2.60;;;1.10;99.90;;;;;;5002326;28;20520;-66
2022/02/12 04:56:56;;;;;;;10.13;2.05;;;1.20;99.90;;;;;;5002857;28;20062;-66
2022/02/12 04:59:22;;;;;;;14.93;2.20;;;1.10;99.90;;;;;;4999554;28;20054;-67
2022/02/12 05:01:50;;;;;;;11.10;2.75;;;1.10;99.90;;;;;;5004208;28;20042;-65
2022/02/12 05:04:16;;;;;;;13.18;2.97;;;1.10;99.90;;;;;;5001135;28;20442;-66
2022/02/12 05:06:42;;;;;;;13.32;3.00;;;1.20;99.90;;;;;;5003387;28;20054;-66
2022/02/12 05:09:07;;;;;;;11.88;2.22;;;1.10;99.90;;;;;;5002197;28;20058;-66
2022/02/12 05:11:34;;;;;;;13.93;2.47;;;1.10;99.90;;;;;;5001542;28;20528;-66
2022/02/12 05:13:59;;;;;;;13.57;3.15;;;1.20;99.90;;;;;;5001534;28;20129;-66
2022/02/12 05:16:25;;;;;;;15.70;4.03;;;1.10;99.90;;;;;;5003092;28;20073;-68
2022/02/12 05:18:50;;;;;;;13.63;2.28;;;1.10;99.90;;;;;;4995560;28;20493;-66
2022/02/12 05:21:16;;;;;;;8.63;2.08;;;1.10;99.90;;;;;;5000685;28;20489;-66
2022/02/12 05:23:44;;;;;;;13.75;2.53;;;1.10;99.90;;;;;;5002938;28;20041;-66
2022/02/12 05:26:10;;;;;;;10.68;2.83;;;1.10;99.90;;;;;;5002194;28;20042;-66
2022/02/12 05:28:35;;;;;;;13.23;3.08;;;1.00;99.90;;;;;;5003499;28;20138;-66
2022/02/12 05:31:01;;;;;;;11.55;2.58;;;1.10;99.90;;;;;;5001544;28;20069;-65
2022/02/12 05:33:27;;;;;;;10.13;2.30;;;1.10;99.90;;;;;;4998873;28;20054;-66
2022/02/12 05:35:52;;;;;;;14.25;2.60;;;1.00;99.90;;;;;;5003122;28;20149;-66
2022/02/12 05:38:18;;;;;;;9.20;2.38;;;1.00;99.90;;;;;;4999676;28;20044;-66
2022/02/12 05:40:44;;;;;;;13.48;2.17;;;1.10;99.90;;;;;;5002077;28;20026;-65
2022/02/12 05:43:10;;;;;;;9.55;2.60;;;1.00;99.90;;;;;;5001027;28;20031;-66
2022/02/12 05:45:35;;;;;;;19.90;3.00;;;1.00;99.90;;;;;;5001124;28;20088;-67
2022/02/12 05:48:01;;;;;;;15.48;2.05;;;1.00;99.90;;;;;;5001054;28;20046;-66
2022/02/12 05:50:29;;;;;;;8.05;2.33;;;1.00;99.90;;;;;;5001568;28;20807;-66
2022/02/12 05:52:56;;;;;;;8.40;2.58;;;1.00;99.90;;;;;;5000378;28;20446;-66
2022/02/12 05:55:22;;;;;;;14.43;2.20;;;0.90;99.90;;;;;;5002663;28;20030;-67
2022/02/12 05:57:47;;;;;;;13.32;2.70;;;0.90;99.90;;;;;;4999838;28;20049;-67
2022/02/12 06:00:13;;;;;;;13.70;2.92;;;0.90;99.90;;;;;;5002717;28;20038;-67
2022/02/12 06:02:39;;;;;;;12.15;2.60;;;0.90;99.90;;;;;;4999787;28;20034;-66
2022/02/12 06:05:05;;;;;;;10.93;2.00;;;0.90;99.90;;;;;;5000852;28;20068;-67
2022/02/12 06:07:30;;;;;;;9.43;2.25;;;0.80;99.90;;;;;;5001201;28;20394;-67
2022/02/12 06:09:56;;;;;;;11.60;2.45;;;0.90;99.90;;;;;;4998927;28;20031;-66
2022/02/12 06:12:22;;;;;;;11.07;2.80;;;0.80;99.90;;;;;;5001568;28;20044;-66
2022/02/12 06:14:47;;;;;;;11.50;2.50;;;0.80;99.90;;;;;;4999599;28;20403;-67
2022/02/12 06:17:13;;;;;;;14.90;3.20;;;0.80;99.90;;;;;;5001998;28;20037;-65
2022/02/12 06:19:38;;;;;;;9.43;2.75;;;0.80;99.90;;;;;;4999506;28;20057;-66
2022/02/12 06:22:04;;;;;;;11.77;3.15;;;0.80;99.90;;;;;;4998936;28;20437;-67
2022/02/12 06:24:29;;;;;;;19.63;5.00;;;0.80;99.90;;;;;;5001200;28;20037;-67
2022/02/12 06:26:57;;;;;;;16.25;2.88;;;0.80;99.90;;;;;;5000354;28;20521;-66
2022/02/12 06:29:24;;;;;;;15.02;2.72;;;0.80;99.90;;;;;;5001345;28;20041;-67
2022/02/12 06:31:50;;;;;;;13.02;3.33;;;0.80;99.90;;;;;;4998837;28;20032;-66
2022/02/12 06:34:16;;;;;;;13.40;2.63;;;0.80;99.90;;;;;;5001665;28;20045;-66
2022/02/12 06:36:42;;;;;;;8.45;3.22;;;0.80;99.90;;;;;;4997796;28;20038;-66
2022/02/12 06:39:07;;;;;;;16.15;3.83;;;0.80;99.90;;;;;;5000697;28;20049;-67
2022/02/12 06:41:33;;;;;;;9.65;3.17;;;0.80;99.90;;;;;;5001371;28;20077;-67
2022/02/12 06:43:59;;;;;;;11.30;2.72;;;0.80;99.90;;;;;;5000938;28;20046;-68
2022/02/12 06:46:24;;;;;;;10.63;2.80;;;0.80;99.90;;;;;;4999153;28;20486;-66
2022/02/12 06:48:50;;;;;;;9.95;3.05;;;0.80;99.90;;;;;;4997803;28;20042;-67
2022/02/12 06:51:17;;;;;;;12.88;3.58;;;0.80;99.90;;;;;;5002188;28;20092;-67
2022/02/12 06:53:43;;;;;;;12.55;2.85;;;0.90;99.90;;;;;;4998838;28;20030;-67
2022/02/12 06:56:09;;;;;;;11.98;3.13;;;0.90;99.90;;;;;;5001912;28;20581;-67
2022/02/12 06:58:35;;;;;;;11.23;2.22;;;0.90;99.90;;;;;;4999860;28;20124;-66
2022/02/12 07:01:01;;;;;;;12.73;3.50;;;0.90;99.90;;;;;;5000281;28;20038;-66
2022/02/12 07:03:27;;;;;;;18.08;3.10;;;0.90;99.90;;;;;;5000033;28;20117;-66
2022/02/12 07:05:52;;;;;;;10.30;2.55;;;0.90;99.90;;;;;;4999718;28;20041;-67
2022/02/12 07:08:18;;;;;;;8.88;2.50;;;0.80;99.90;;;;;;5001063;28;20461;-67
2022/02/12 07:10:44;;;;;;;17.77;3.30;;;0.80;99.90;;;;;;4997513;28;20038;-66
2022/02/12 07:13:11;;;;;;;8.55;3.33;;;0.80;99.90;;;;;;4999886;28;20053;-67
2022/02/12 07:15:37;;;;;;;10.32;2.75;;;0.80;99.90;;;;;;4997584;28;20065;-68
2022/02/12 07:18:03;;;;;;;12.75;2.88;;;0.80;99.90;;;;;;5000527;28;20506;-68
2022/02/12 07:20:29;;;;;;;19.25;4.35;;;0.80;99.90;;;;;;4998718;28;20033;-68
2022/02/12 07:22:55;;;;;;;13.63;3.03;;;0.80;99.90;;;;;;4999055;28;20077;-69
2022/02/12 07:25:21;;;;;;;11.10;3.22;;;0.80;99.90;;;;;;5001068;28;20502;-68
2022/02/12 07:27:47;;;;;;;14.05;3.55;;;0.80;99.90;;;;;;4998059;28;20035;-67
2022/02/12 07:30:15;;;;;;;9.32;3.30;;;0.80;99.90;;;;;;5000147;28;20436;-67
2022/02/12 07:32:42;;;;;;;9.73;3.15;;;0.80;99.90;;;;;;4996043;28;20045;-67
2022/02/12 07:35:09;;;;;;;10.40;3.25;;;0.70;99.90;;;;;;5002363;28;20128;-66
2022/02/12 07:37:38;;;;;;;16.20;3.70;;;0.80;99.90;;;;;;5004768;28;20026;-68
2022/02/12 07:40:05;;;;;;;7.32;3.08;;;0.80;99.90;;;;;;5007311;28;20038;-69
2022/02/12 07:42:30;;;;;;;15.65;2.97;;;0.80;99.90;;;;;;5007954;28;20026;-67
2022/02/12 07:44:56;;;;;;;13.70;3.38;;;0.80;99.90;;;;;;5007994;28;20038;-67
2022/02/12 07:47:22;;;;;;;7.35;2.78;;;0.90;99.90;;;;;;5007290;28;20118;-68
2022/02/12 07:49:47;;;;;;;13.55;2.88;;;0.90;99.90;;;;;;5007964;28;20508;-64
2022/02/12 07:52:13;;;;;;;18.10;3.72;;;0.90;99.90;;;;;;5007239;28;20123;-67
2022/02/12 07:54:39;;;;;;;12.00;3.08;;;0.90;99.90;;;;;;5008368;28;20038;-68
2022/02/12 07:57:04;;;;;;;15.40;2.85;;;0.90;99.90;;;;;;5004324;28;20026;-68
2022/02/12 07:59:30;;;;;;;22.42;3.63;;;0.90;99.90;;;;;;5009466;28;20462;-66
2022/02/12 08:01:55;;;;;;;10.07;3.05;;;0.90;99.90;;;;;;5007763;28;20038;-67
2022/02/12 08:04:21;;;;;;;8.25;2.78;;;0.90;99.90;;;;;;5008580;28;20042;-68
2022/02/12 08:09:31;;;;;;;11.00;2.67;;;1.00;99.90;;;;;;5011552;28;20045;-66
2022/02/12 08:12:13;;;;;;;19.02;3.80;;;1.10;99.90;;;;;;5011606;28;20053;-66
2022/02/12 08:14:42;;;;;;;17.30;4.68;;;1.20;99.90;;;;;;5011133;28;20052;-67
2022/02/12 08:17:08;;;;;;;10.93;2.83;;;1.20;99.90;;;;;;5023409;28;20563;-67
2022/02/12 08:19:34;;;;;;;17.73;2.97;;;1.30;99.90;;;;;;5010771;28;20046;-67
2022/02/12 08:21:59;;;;;;;10.75;2.92;;;1.40;99.90;;;;;;5005745;28;20038;-66
2022/02/12 08:24:25;;;;;;;24.50;3.20;;;1.50;99.90;;;;;;5003348;28;20038;-67
2022/02/12 08:26:50;;;;;;;15.88;3.08;;;1.60;99.90;;;;;;5002132;28;20125;-67
2022/02/12 08:29:16;;;;;;;13.07;2.95;;;1.60;99.90;;;;;;5002621;28;20035;-67
2022/02/12 08:31:42;;;;;;;9.30;2.90;;;1.80;99.90;;;;;;5004846;28;20481;-67
2022/02/12 08:34:08;;;;;;;15.48;3.03;;;1.80;99.90;;;;;;5001903;28;20130;-66
2022/02/12 08:36:33;;;;;;;9.32;3.15;;;1.90;99.90;;;;;;5004571;28;20120;-66
2022/02/12 08:38:59;;;;;;;12.63;3.33;;;2.00;99.90;;;;;;5002271;28;20058;-67
2022/02/12 08:41:25;;;;;;;13.43;3.05;;;2.10;99.90;;;;;;5002127;28;20049;-66
2022/02/12 08:43:50;;;;;;;13.40;3.75;;;2.10;99.90;;;;;;4997022;28;20084;-67
2022/02/12 08:46:16;;;;;;;11.18;4.72;;;2.20;99.90;;;;;;5000408;28;20022;-68
2022/02/12 08:48:41;;;;;;;10.27;3.15;;;2.20;99.90;;;;;;5002310;28;20397;-67
2022/02/12 08:51:08;;;;;;;9.65;2.60;;;2.30;99.90;;;;;;4998786;28;20038;-67
2022/02/12 08:53:34;;;;;;;15.27;2.90;;;2.40;99.90;;;;;;5004639;28;20121;-66
2022/02/12 08:56:00;;;;;;;10.95;2.45;;;2.50;99.90;;;;;;5003819;28;20052;-67
2022/02/12 08:58:26;;;;;;;14.88;3.42;;;2.50;99.90;;;;;;5000682;28;20104;-66
2022/02/12 09:00:52;;;;;;;8.63;2.78;;;2.50;99.90;;;;;;4999717;28;20050;-67
2022/02/12 09:03:18;;;;;;;8.88;2.72;;;2.60;99.90;;;;;;5004370;28;20122;-67
2022/02/12 09:05:44;;;;;;;12.73;4.45;;;2.80;99.90;;;;;;5005293;28;20033;-67
2022/02/12 09:08:11;;;;;;;9.90;2.38;;;2.80;99.90;;;;;;5001780;28;20092;-64
2022/02/12 09:10:38;;;;;;;11.65;3.30;;;2.90;99.90;;;;;;5000241;28;20137;-66
2022/02/12 09:13:03;;;;;;;12.77;2.85;;;3.00;99.90;;;;;;5000599;28;20037;-66
2022/02/12 09:15:29;;;;;;;9.93;2.85;;;3.10;99.90;;;;;;5002091;28;20168;-66
2022/02/12 09:17:55;;;;;;;12.77;2.28;;;3.20;99.90;;;;;;5000376;28;20544;-64
2022/02/12 09:20:20;;;;;;;10.73;2.88;;;3.30;99.90;;;;;;4999686;28;20030;-65
2022/02/12 09:22:46;;;;;;;15.48;3.00;;;3.50;99.90;;;;;;4999754;28;20084;-66
2022/02/12 09:25:12;;;;;;;14.70;3.50;;;3.50;99.90;;;;;;5002481;28;20473;-69
2022/02/12 09:27:38;;;;;;;7.45;2.60;;;3.60;99.90;;;;;;4998675;28;20450;-69
2022/02/12 09:30:05;;;;;;;14.93;3.70;;;3.60;99.90;;;;;;5002063;28;20080;-67
2022/02/12 09:32:31;;;;;;;10.43;2.83;;;3.70;99.90;;;;;;4997750;28;20042;-65
2022/02/12 09:34:57;;;;;;;9.65;2.83;;;3.80;99.90;;;;;;5002322;28;20093;-65
2022/02/12 09:37:23;;;;;;;15.18;2.47;;;3.80;99.90;;;;;;5000400;28;20030;-65
2022/02/12 09:39:48;;;;;;;7.57;2.78;;;3.90;99.90;;;;;;4999867;28;20038;-67
2022/02/12 09:42:14;;;;;;;9.32;2.53;;;4.00;99.90;;;;;;5001492;28;20083;-67
2022/02/12 09:44:43;;;;;;;17.48;2.58;;;4.00;99.90;;;;;;5000677;28;20161;-65
2022/02/12 09:47:25;;;;;;;15.65;2.85;;;4.10;99.90;;;;;;5002195;28;20375;-64
2022/02/12 09:49:56;;;;;;;9.98;2.30;;;4.20;99.90;;;;;;5002859;28;20065;-65
2022/02/12 09:52:26;;;;;;;10.15;2.55;;;4.20;99.90;;;;;;4996740;28;20046;-65
2022/02/12 09:54:52;;;;;;;9.93;2.97;;;4.30;99.90;;;;;;5003034;28;20543;-65
2022/02/12 09:57:17;;;;;;;7.82;1.85;;;4.30;99.90;;;;;;5004654;28;20144;-68
2022/02/12 09:59:44;;;;;;;9.10;3.25;;;4.40;99.90;;;;;;5000398;28;20045;-64
2022/02/12 10:02:17;;;;;;;8.35;1.92;;;4.50;99.90;;;;;;4997019;28;20074;-65
2022/02/12 10:04:43;;;;;;;8.43;2.53;;;4.50;99.90;;;;;;5002274;28;20041;-65
2022/02/12 10:07:25;;;;;;;5.82;1.73;;;4.50;99.90;;;;;;5000350;28;20035;-67
2022/02/12 10:10:14;;;;;;;6.03;2.15;;;4.60;99.90;;;;;;4999333;28;20053;-64
2022/02/12 10:12:39;;;;;;;9.10;2.03;;;4.70;99.90;;;;;;4996997;28;20054;-65
2022/02/12 10:15:12;;;;;;;14.13;1.73;;;4.70;99.90;;;;;;4999634;28;20533;-65
2022/02/12 10:17:51;;;;;;;13.57;2.60;;;4.80;99.90;;;;;;4998702;28;20038;-70
2022/02/12 10:20:32;;;;;;;18.73;3.17;;;4.90;99.90;;;;;;4997080;28;20030;-64
2022/02/12 10:23:05;;;;;;;6.97;2.45;;;4.90;99.90;;;;;;5002582;28;20036;-67
2022/02/12 10:25:31;;;;;;;9.75;2.38;;;4.90;99.90;;;;;;5001780;28;20029;-64
2022/02/12 10:27:57;;;;;;;7.97;2.45;;;5.00;99.90;;;;;;4999445;28;20367;-65
2022/02/12 10:30:25;;;;;;;14.23;3.10;;;5.10;99.90;;;;;;5001297;28;20113;-65
2022/02/12 10:33:00;;;;;;;14.75;3.30;;;5.20;99.90;;;;;;5002993;28;20243;-65
2022/02/12 10:35:27;;;;;;;4.68;1.52;;;5.20;99.90;;;;;;4998645;28;20026;-65
2022/02/12 10:38:01;;;;;;;12.85;2.67;;;5.30;99.90;;;;;;5001870;28;20031;-65
2022/02/12 10:40:28;;;;;;;12.95;2.20;;;5.30;99.90;;;;;;4998556;28;20049;-67
2022/02/12 10:42:55;;;;;;;18.50;2.42;;;5.30;99.90;;;;;;5003008;28;20490;-65
2022/02/12 10:45:22;;;;;;;6.65;2.58;;;5.40;99.90;;;;;;4998518;28;20038;-66
2022/02/12 10:47:49;;;;;;;11.00;2.53;;;5.50;99.90;;;;;;4999306;28;20030;-64
2022/02/12 10:50:19;;;;;;;10.13;3.03;;;5.50;99.90;;;;;;4997647;28;20117;-64
2022/02/12 10:52:55;;;;;;;8.45;1.85;;;5.60;99.90;;;;;;4999165;28;20030;-65
2022/02/12 10:55:34;;;;;;;12.68;1.92;;;5.70;99.90;;;;;;4999764;28;20037;-65
2022/02/12 10:58:03;;;;;;;7.40;2.35;;;5.70;99.90;;;;;;4993456;28;20490;-65
2022/02/12 11:00:31;;;;;;;16.17;3.22;;;5.80;99.90;;;;;;4991095;28;20119;-65
2022/02/12 11:02:59;;;;;;;10.43;1.88;;;5.80;99.90;;;;;;4999505;28;20049;-65
2022/02/12 11:05:26;;;;;;;12.15;1.90;;;5.90;99.90;;;;;;4998913;28;20042;-64
2022/02/12 11:07:53;;;;;;;8.45;2.17;;;6.00;99.90;;;;;;5002293;28;20152;-68
2022/02/12 11:10:20;;;;;;;12.23;2.20;;;6.00;99.90;;;;;;5000639;28;20084;-68
2022/02/12 11:12:47;;;;;;;16.30;4.28;;;6.00;99.90;;;;;;5000848;28;20026;-65
2022/02/12 11:15:13;;;;;;;12.88;2.85;;;6.10;99.90;;;;;;5000575;28;20034;-64
2022/02/12 11:17:41;;;;;;;10.82;2.35;;;6.20;99.90;;;;;;5002874;28;20512;-65
2022/02/12 11:20:08;;;;;;;12.45;2.45;;;6.20;99.90;;;;;;4992670;28;20038;-64
2022/02/12 11:22:35;;;;;;;8.35;2.28;;;6.20;99.90;;;;;;4998088;28;20117;-66
2022/02/12 11:25:01;;;;;;;10.95;2.58;;;6.30;99.90;;;;;;5009625;28;20034;-65
2022/02/12 11:27:29;;;;;;;5.47;1.63;;;6.40;99.90;;;;;;5010384;28;20033;-65
2022/02/12 11:30:13;;;;;;;9.27;1.77;;;6.40;99.90;;;;;;5000617;28;20041;-65
2022/02/12 11:32:46;;;;;;;12.07;1.60;;;6.40;99.90;;;;;;5021787;23;20125;-60
2022/02/12 11:35:11;;;;;;;6.18;1.77;;;6.60;99.90;;;;;;5000722;28;20389;-62
2022/02/12 11:37:39;;;;;;;7.43;1.50;;;6.60;99.90;;;;;;5022222;28;20034;-61
2022/02/12 11:40:28;;;;;;;21.58;2.70;;;6.70;99.90;;;;;;5020421;28;20060;-65
2022/02/12 11:43:03;;;;;;;5.90;1.95;;;6.70;99.90;;;;;;5025879;28;20586;-61
2022/02/12 11:45:42;;;;;;;8.60;1.42;;;6.70;99.90;;;;;;5020681;28;20034;-62
2022/02/12 11:48:13;;;;;;;10.98;1.83;;;6.80;99.90;;;;;;5021762;28;20033;-60
2022/02/12 11:51:01;;;;;;;6.93;1.90;;;6.90;99.90;;;;;;5021680;28;20534;-60
2022/02/12 11:53:54;;;;;;;7.47;1.83;;;6.90;99.90;;;;;;5023696;28;20073;-61
2022/02/12 11:56:20;;;;;;;3.95;1.55;;;6.90;99.90;;;;;;5023365;28;20040;-62
2022/02/12 11:58:45;;;;;;;13.68;1.55;;;6.90;99.90;;;;;;5020387;28;20413;-60
2022/02/12 12:01:23;;;;;;;13.05;2.28;;;6.90;99.90;;;;;;5021648;28;20045;-60
2022/02/12 12:04:14;;;;;;;6.72;1.27;;;6.90;99.90;;;;;;5021556;28;20050;-61
2022/02/12 12:07:07;;;;;;;5.10;1.88;;;6.90;99.90;;;;;;5004383;28;20514;-60
2022/02/12 12:09:38;;;;;;;5.82;2.35;;;6.90;99.90;;;;;;5020163;28;20034;-61
2022/02/12 12:12:17;;;;;;;8.38;1.70;;;6.90;99.90;;;;;;5022013;28;20037;-60
2022/02/12 12:14:43;;;;;;;11.23;1.70;;;6.90;99.90;;;;;;5005983;28;20033;-61
2022/02/12 12:17:09;;;;;;;3.33;1.05;;;6.90;99.90;;;;;;5020971;28;20037;-61
2022/02/12 12:19:38;;;;;;;10.90;1.55;;;7.00;99.90;;;;;;5022002;28;20057;-62
2022/02/12 12:22:09;;;;;;;8.13;1.75;;;7.00;99.90;;;;;;5003919;28;20675;-60
2022/02/12 12:24:35;;;;;;;5.57;1.75;;;7.00;99.90;;;;;;5018622;28;20057;-63
2022/02/12 12:27:01;;;;;;;4.65;1.58;;;6.90;99.90;;;;;;5022256;28;20525;-60
2022/02/12 12:32:15;;;;;;;8.82;2.00;;;6.90;99.90;;;;;;5021941;28;20056;-61
2022/02/12 12:34:58;;;;;;;6.63;2.60;;;7.00;99.90;;;;;;5020381;28;20042;-61
2022/02/12 12:37:25;;;;;;;3.58;1.42;;;7.00;99.90;;;;;;5022633;28;20033;-61
2022/02/12 12:39:51;;;;;;;7.93;1.52;;;7.00;99.90;;;;;;5018894;28;20045;-61
2022/02/12 12:42:22;;;;;;;9.88;2.42;;;7.00;99.90;;;;;;5023313;28;20126;-61
2022/02/12 12:44:58;;;;;;;;;;;7.10;99.90;;;;;;5004430;28;20121;-62
2022/02/12 12:47:24;;;;;;;11.43;2.40;;;7.10;99.90;;;;;;5008458;28;20012;-60
2022/02/12 12:49:54;;;;;;;7.70;1.35;;;7.10;99.90;;;;;;5021701;28;20460;-61
2022/02/12 12:52:23;;;;;;;6.45;0.90;;;7.00;99.90;;;;;;5018997;28;20026;-61
2022/02/12 12:54:54;;;;;;;6.28;1.50;;;7.10;99.90;;;;;;5021779;28;20382;-61
2022/02/12 12:57:26;;;;;;;11.10;2.17;;;7.10;99.90;;;;;;5021998;28;20041;-62
2022/02/12 12:59:57;;;;;;;7.97;1.23;;;7.20;99.90;;;;;;5033020;28;20548;-61
2022/02/12 13:02:24;;;;;;;7.65;1.35;;;7.10;99.90;;;;;;5018494;28;20141;-60
2022/02/12 13:04:54;;;;;;;3.75;1.85;;;7.10;99.90;;;;;;5025845;28;20042;-60